createdAt,value
2018-02-27T00:07:28.198Z,0.0
2018-02-27T00:33:00.996Z,0.0
2018-02-27T01:26:35.066Z,0.0
2018-02-27T01:36:49.382Z,0.0
2018-02-27T01:47:03.995Z,0.0
2018-02-27T01:57:18.203Z,0.0
2018-02-27T02:07:44.948Z,0.0
2018-02-27T02:17:58.719Z,0.0
2018-02-27T02:28:12.978Z,0.0
2018-02-27T02:38:58.738Z,0.0
2018-02-27T03:02:22.684Z,0.0
2018-02-27T03:12:38.859Z,0.0
2018-02-27T03:22:52.916Z,0.0
2018-02-27T03:33:51.572Z,0.0
2018-02-27T03:46:29.841Z,0.0
2018-02-27T04:23:56.521Z,0.0
2018-02-27T04:35:01.200Z,0.0
2018-02-27T04:45:19.041Z,0.0
2018-02-27T04:55:33.022Z,0.0
2018-02-27T05:06:19.025Z,0.0
2018-02-27T05:16:33.154Z,0.0
2018-02-27T05:26:49.295Z,0.0
2018-02-27T05:37:03.432Z,0.0
2018-02-27T05:47:15.844Z,0.0
2018-02-27T05:57:29.856Z,0.0
2018-02-27T06:08:15.375Z,0.0
2018-02-27T06:18:26.586Z,5.0
2018-02-27T06:28:38.940Z,15.0
2018-02-27T06:38:51.007Z,25.0
2018-02-27T06:49:12.992Z,40.0
2018-02-27T06:59:26.897Z,55.0
2018-02-27T07:09:54.140Z,70.0
2018-02-27T07:20:08.399Z,80.0
2018-02-27T07:30:27.660Z,100.0
2018-02-27T07:40:41.659Z,130.0
2018-02-27T07:51:27.209Z,150.0
2018-02-27T08:02:12.936Z,380.0
2018-02-27T08:12:23.884Z,345.0
2018-02-27T08:22:37.420Z,1295.0
2018-02-27T08:32:51.695Z,1715.0
2018-02-27T08:43:03.969Z,1555.0
2018-02-27T08:53:49.358Z,1625.0
2018-02-27T09:04:03.815Z,560.0
2018-02-27T09:14:49.338Z,635.0
2018-02-27T09:25:00.883Z,245.0
2018-02-27T09:35:14.983Z,280.0
2018-02-27T09:45:29.245Z,2065.0
2018-02-27T09:55:44.447Z,2420.0
2018-02-27T10:05:59.067Z,1845.0
2018-02-27T10:16:13.404Z,3000.0
2018-02-27T10:26:27.197Z,340.0
2018-02-27T10:37:12.584Z,885.0
2018-02-27T10:47:26.749Z,370.0
2018-02-27T10:57:40.224Z,465.0
2018-02-27T11:07:55.069Z,2945.0
2018-02-27T11:18:40.060Z,635.0
2018-02-27T11:28:54.657Z,1350.0
2018-02-27T11:39:40.012Z,390.0
2018-02-27T11:49:55.145Z,1715.0
2018-02-27T12:00:08.876Z,510.0
2018-02-27T12:10:24.124Z,265.0
2018-02-27T12:20:39.050Z,390.0
2018-02-27T12:30:54.721Z,410.0
2018-02-27T12:41:09.105Z,1450.0
2018-02-27T12:51:22.565Z,1695.0
2018-02-27T13:02:07.670Z,2185.0
2018-02-27T13:12:53.217Z,750.0
2018-02-27T13:23:07.477Z,1220.0
2018-02-27T13:33:54.402Z,415.0
2018-02-27T13:44:09.058Z,375.0
2018-02-27T13:54:23.177Z,1845.0
2018-02-27T14:04:39.004Z,1825.0
2018-02-27T14:14:53.227Z,1960.0
2018-02-27T14:25:07.826Z,1770.0
2018-02-27T14:35:22.230Z,1790.0
2018-02-27T14:46:08.722Z,315.0
2018-02-27T14:57:01.824Z,85.0
2018-02-27T15:07:48.149Z,205.0
2018-02-27T15:18:02.059Z,285.0
2018-02-27T15:28:15.025Z,275.0
2018-02-27T15:39:01.466Z,245.0
2018-02-27T15:49:48.503Z,210.0
2018-02-27T16:00:34.219Z,155.0
2018-02-27T16:11:19.662Z,95.0
2018-02-27T16:21:55.626Z,70.0
2018-02-27T16:32:09.821Z,50.0
2018-02-27T16:42:23.585Z,35.0
2018-02-27T16:52:35.500Z,10.0
2018-02-27T17:02:47.254Z,5.0
2018-02-27T17:13:01.360Z,0.0
2018-02-27T17:23:15.689Z,0.0
2018-02-27T17:33:29.686Z,0.0
2018-02-27T17:43:44.069Z,0.0
2018-02-27T17:53:58.298Z,0.0
2018-02-27T18:04:12.244Z,0.0
2018-02-27T18:14:27.125Z,0.0
2018-02-27T18:24:40.984Z,0.0
2018-02-27T18:34:55.146Z,0.0
2018-02-27T18:45:40.395Z,0.0
2018-02-27T18:55:54.240Z,0.0
2018-02-27T19:08:00.367Z,0.0
2018-02-27T19:19:35.562Z,0.0
2018-02-27T19:41:55.705Z,0.0
2018-02-27T19:53:47.309Z,0.0
2018-02-27T20:05:07.709Z,0.0
2018-02-27T20:28:59.718Z,0.0
2018-02-27T20:39:49.699Z,0.0
2018-02-27T20:53:00.443Z,0.0
2018-02-27T21:15:17.530Z,0.0
2018-02-27T21:25:31.015Z,0.0
2018-02-27T21:36:17.677Z,0.0
2018-02-27T21:46:39.655Z,0.0
2018-02-27T21:58:05.544Z,0.0
2018-02-27T22:08:19.641Z,0.0
2018-02-27T22:18:34.134Z,0.0
2018-02-27T22:28:48.330Z,0.0
2018-02-27T22:39:02.353Z,0.0
2018-02-27T22:49:48.144Z,0.0
2018-02-27T23:00:11.247Z,0.0
2018-02-27T23:10:27.029Z,0.0
2018-02-27T23:20:40.796Z,0.0
2018-02-27T23:30:55.368Z,0.0
2018-02-27T23:41:20.519Z,0.0
2018-02-27T23:52:07.999Z,0.0
